createdAt,value
2022-12-19T00:01:34.318Z,-6.22
2022-12-19T00:04:07.026Z,-6.24
2022-12-19T00:06:37.395Z,-6.28
2022-12-19T00:09:05.157Z,-6.28
2022-12-19T00:11:33.617Z,-6.28
2022-12-19T00:14:00.361Z,-6.26
2022-12-19T00:16:29.113Z,-6.28
2022-12-19T00:18:58.521Z,-6.31
2022-12-19T00:21:27.956Z,-6.30
2022-12-19T00:23:54.990Z,-6.27
2022-12-19T00:26:24.189Z,-6.27
2022-12-19T00:28:54.666Z,-6.31
2022-12-19T00:31:26.710Z,-6.35
2022-12-19T00:33:53.521Z,-6.31
2022-12-19T00:36:25.315Z,-6.27
2022-12-19T00:38:54.131Z,-6.27
2022-12-19T00:41:24.899Z,-6.29
2022-12-19T00:43:56.156Z,-6.29
2022-12-19T00:46:24.144Z,-6.32
2022-12-19T00:48:50.906Z,-6.35
2022-12-19T00:51:20.339Z,-6.37
2022-12-19T00:53:48.935Z,-6.36
2022-12-19T00:56:18.956Z,-6.35
2022-12-19T00:58:47.330Z,-6.28
2022-12-19T01:01:17.493Z,-6.24
2022-12-19T01:04:04.511Z,-6.23
2022-12-19T01:06:32.022Z,-6.26
2022-12-19T01:08:58.761Z,-6.26
2022-12-19T01:11:44.110Z,-6.26
2022-12-19T01:14:14.939Z,-6.31
2022-12-19T01:16:44.467Z,-6.32
2022-12-19T01:19:11.314Z,-6.31
2022-12-19T01:21:37.961Z,-6.32
2022-12-19T01:24:06.077Z,-6.32
2022-12-19T01:26:32.767Z,-6.30
2022-12-19T01:28:59.805Z,-6.30
2022-12-19T01:31:27.425Z,-6.26
2022-12-19T01:33:55.334Z,-6.25
2022-12-19T01:36:22.687Z,-6.24
2022-12-19T01:38:49.281Z,-6.23
2022-12-19T01:41:15.923Z,-6.19
2022-12-19T01:43:56.934Z,-6.21
2022-12-19T01:46:35.417Z,-6.21
2022-12-19T01:49:03.962Z,-6.26
2022-12-19T01:51:40.946Z,-6.22
2022-12-19T01:54:11.949Z,-6.24
2022-12-19T01:56:42.017Z,-6.22
2022-12-19T01:59:15.945Z,-6.20
2022-12-19T02:01:51.210Z,-6.17
2022-12-19T02:04:30.911Z,-6.15
2022-12-19T02:07:03.536Z,-6.15
2022-12-19T02:09:47.116Z,-6.17
2022-12-19T02:12:17.162Z,-6.18
2022-12-19T02:14:44.267Z,-6.13
2022-12-19T02:20:44.730Z,-6.18
2022-12-19T02:23:50.190Z,-6.20
2022-12-19T02:26:43.668Z,-6.25
2022-12-19T02:29:28.838Z,-6.29
2022-12-19T02:32:04.168Z,-6.31
2022-12-19T02:35:02.155Z,-6.33
2022-12-19T02:37:33.709Z,-6.34
2022-12-19T02:40:26.696Z,-6.33
2022-12-19T02:42:58.855Z,-6.33
2022-12-19T02:45:30.367Z,-6.30
2022-12-19T02:48:04.563Z,-6.27
2022-12-19T02:50:42.171Z,-6.25
2022-12-19T02:53:11.968Z,-6.21
2022-12-19T02:55:48.892Z,-6.16
2022-12-19T02:58:15.641Z,-6.12
2022-12-19T03:01:02.788Z,-6.08
2022-12-19T03:03:52.326Z,-6.11
2022-12-19T03:06:36.781Z,-6.15
2022-12-19T03:09:11.435Z,-6.20
2022-12-19T03:11:41.533Z,-6.18
2022-12-19T03:14:15.944Z,-6.22
2022-12-19T03:16:42.822Z,-6.24
2022-12-19T03:19:13.009Z,-6.24
2022-12-19T03:21:43.547Z,-6.23
2022-12-19T03:24:12.527Z,-6.23
2022-12-19T03:26:55.181Z,-6.24
2022-12-19T03:29:37.857Z,-6.29
2022-12-19T03:32:08.846Z,-6.30
2022-12-19T03:34:44.484Z,-6.28
2022-12-19T03:37:16.962Z,-6.26
2022-12-19T03:39:49.334Z,-6.25
2022-12-19T03:42:36.918Z,-6.27
2022-12-19T03:45:06.133Z,-6.33
2022-12-19T03:47:46.474Z,-6.39
2022-12-19T03:50:13.276Z,-6.44
2022-12-19T03:53:30.746Z,-6.50
2022-12-19T03:56:22.081Z,-6.65
2022-12-19T03:58:56.074Z,-6.73
2022-12-19T04:01:25.533Z,-6.78
2022-12-19T04:03:52.495Z,-6.82
2022-12-19T04:06:19.615Z,-6.83
2022-12-19T04:08:46.518Z,-6.86
2022-12-19T04:11:19.457Z,-6.91
2022-12-19T04:13:54.221Z,-6.97
2022-12-19T04:16:41.546Z,-6.98
2022-12-19T04:19:42.457Z,-7.05
2022-12-19T04:22:50.731Z,-7.12
2022-12-19T04:25:26.284Z,-7.18
2022-12-19T04:28:01.376Z,-7.18
2022-12-19T04:30:28.426Z,-7.17
2022-12-19T04:32:56.597Z,-7.17
2022-12-19T04:35:23.380Z,-7.23
2022-12-19T04:37:51.476Z,-7.27
2022-12-19T04:40:18.274Z,-7.28
2022-12-19T04:42:44.848Z,-7.32
2022-12-19T04:45:11.436Z,-7.34
2022-12-19T04:47:38.365Z,-7.37
2022-12-19T04:50:05.805Z,-7.39
2022-12-19T04:52:32.458Z,-7.43
2022-12-19T04:54:59.297Z,-7.48
2022-12-19T04:57:29.423Z,-7.49
2022-12-19T04:59:56.057Z,-7.51
2022-12-19T05:02:23.501Z,-7.51
2022-12-19T05:04:51.055Z,-7.50
2022-12-19T05:07:17.706Z,-7.51
2022-12-19T05:09:44.360Z,-7.56
2022-12-19T05:12:11.185Z,-7.55
2022-12-19T05:14:37.788Z,-7.57
2022-12-19T05:17:04.441Z,-7.59
2022-12-19T05:19:31.034Z,-7.59
2022-12-19T05:21:58.250Z,-7.58
2022-12-19T05:24:24.891Z,-7.58
2022-12-19T05:26:51.518Z,-7.58
2022-12-19T05:29:18.197Z,-7.68
2022-12-19T05:31:44.950Z,-7.74
2022-12-19T05:34:11.739Z,-7.77
2022-12-19T05:36:38.478Z,-7.71
2022-12-19T05:39:05.230Z,-7.71
2022-12-19T05:41:31.954Z,-7.73
2022-12-19T05:43:58.836Z,-7.79
2022-12-19T05:46:26.694Z,-7.71
2022-12-19T05:48:54.000Z,-7.76
2022-12-19T05:51:21.066Z,-7.77
2022-12-19T05:53:47.821Z,-7.70
2022-12-19T05:56:17.187Z,-7.68
2022-12-19T05:58:44.763Z,-7.71
2022-12-19T06:01:16.025Z,-7.64
2022-12-19T06:03:43.571Z,-7.63
2022-12-19T06:06:13.459Z,-7.66
2022-12-19T06:08:40.884Z,-7.66
2022-12-19T06:11:10.132Z,-7.69
2022-12-19T06:13:38.032Z,-7.67
2022-12-19T06:16:12.296Z,-7.62
2022-12-19T06:18:44.490Z,-7.68
2022-12-19T06:21:17.546Z,-7.64
2022-12-19T06:23:45.031Z,-7.57
2022-12-19T06:26:19.072Z,-7.59
2022-12-19T06:28:50.143Z,-7.59
2022-12-19T06:31:18.379Z,-7.58
2022-12-19T06:33:45.174Z,-7.59
2022-12-19T06:36:17.556Z,-7.62
2022-12-19T06:38:44.201Z,-7.64
2022-12-19T06:41:29.512Z,-7.70
2022-12-19T06:44:00.554Z,-7.67
2022-12-19T06:46:27.567Z,-7.63
2022-12-19T06:48:54.392Z,-7.61
2022-12-19T06:51:21.350Z,-7.53
2022-12-19T06:53:48.765Z,-7.53
2022-12-19T06:56:16.602Z,-7.44
2022-12-19T06:58:43.303Z,-7.47
2022-12-19T07:01:32.437Z,-7.42
2022-12-19T07:03:59.507Z,-7.44
2022-12-19T07:06:26.253Z,-7.45
2022-12-19T07:08:53.004Z,-7.44
2022-12-19T07:11:19.627Z,-7.47
2022-12-19T07:13:46.465Z,-7.33
2022-12-19T07:16:13.372Z,-7.29
2022-12-19T07:18:40.644Z,-7.36
2022-12-19T07:21:10.781Z,-7.29
2022-12-19T07:23:38.733Z,-7.23
2022-12-19T07:26:05.708Z,-7.16
2022-12-19T07:28:34.101Z,-7.15
2022-12-19T07:31:00.808Z,-7.22
2022-12-19T07:33:27.447Z,-7.20
2022-12-19T07:35:54.197Z,-7.22
2022-12-19T07:38:21.027Z,-7.13
2022-12-19T07:40:47.661Z,-7.11
2022-12-19T07:43:14.346Z,-7.04
2022-12-19T07:45:42.654Z,-6.99
2022-12-19T07:48:09.825Z,-7.01
2022-12-19T07:50:36.571Z,-7.02
2022-12-19T07:53:03.305Z,-7.01
2022-12-19T07:55:29.993Z,-6.96
2022-12-19T07:57:56.689Z,-6.89
2022-12-19T08:00:23.429Z,-6.90
2022-12-19T08:02:50.345Z,-6.79
2022-12-19T08:05:17.932Z,-6.73
2022-12-19T08:07:44.871Z,-6.72
2022-12-19T08:10:14.004Z,-6.73
2022-12-19T08:12:41.341Z,-6.64
2022-12-19T08:15:09.027Z,-6.62
2022-12-19T08:17:38.326Z,-6.59
2022-12-19T08:20:07.427Z,-6.61
2022-12-19T08:22:34.193Z,-6.53
2022-12-19T08:25:00.848Z,-6.44
2022-12-19T08:27:27.795Z,-6.42
2022-12-19T08:29:54.538Z,-6.41
2022-12-19T08:32:22.020Z,-6.41
2022-12-19T08:34:49.523Z,-6.40
2022-12-19T08:37:16.742Z,-6.35
2022-12-19T08:39:43.523Z,-6.28
2022-12-19T08:42:10.276Z,-6.21
2022-12-19T08:44:36.976Z,-6.13
2022-12-19T08:47:04.080Z,-6.05
2022-12-19T08:49:30.821Z,-6.09
2022-12-19T08:51:57.491Z,-6.07
2022-12-19T08:54:24.282Z,-6.04
2022-12-19T08:56:51.137Z,-6.04
2022-12-19T08:59:19.278Z,-5.96
2022-12-19T09:01:58.125Z,-5.98
2022-12-19T09:05:39.522Z,-5.88
2022-12-19T09:07:15.281Z,-5.90
2022-12-19T09:09:43.852Z,-5.85
2022-12-19T09:12:12.852Z,-5.76
2022-12-19T09:14:39.574Z,-5.79
2022-12-19T09:17:06.377Z,-5.69
2022-12-19T09:19:33.352Z,-5.74
2022-12-19T09:22:00.013Z,-5.72
2022-12-19T09:24:26.722Z,-5.63
2022-12-19T09:26:53.521Z,-5.62
2022-12-19T09:29:21.795Z,-5.61
2022-12-19T09:31:55.303Z,-5.60
2022-12-19T09:34:36.839Z,-5.60
2022-12-19T09:37:07.325Z,-5.63
2022-12-19T09:39:35.533Z,-5.58
2022-12-19T09:42:05.343Z,-5.46
2022-12-19T09:44:59.458Z,-5.49
2022-12-19T09:47:30.399Z,-5.52
2022-12-19T09:49:59.251Z,-5.45
2022-12-19T09:52:37.964Z,-5.38
2022-12-19T09:55:09.564Z,-5.35
2022-12-19T09:58:00.830Z,-5.27
2022-12-19T10:00:39.746Z,-5.28
2022-12-19T10:03:32.305Z,-5.25
2022-12-19T10:07:11.070Z,-5.20
2022-12-19T10:09:57.790Z,-5.19
2022-12-19T10:12:43.318Z,-5.14
2022-12-19T10:15:19.147Z,-5.06
2022-12-19T10:17:48.613Z,-4.92
2022-12-19T10:20:27.751Z,-4.81
2022-12-19T10:23:22.057Z,-4.71
2022-12-19T10:26:22.877Z,-4.70
2022-12-19T10:29:05.952Z,-4.67
2022-12-19T10:31:47.689Z,-4.63
2022-12-19T10:34:24.058Z,-4.58
2022-12-19T10:37:27.193Z,-4.52
2022-12-19T10:39:52.824Z,-4.47
2022-12-19T10:42:33.023Z,-4.47
2022-12-19T10:45:04.262Z,-4.43
2022-12-19T10:47:31.180Z,-4.35
2022-12-19T10:49:59.515Z,-4.26
2022-12-19T10:52:48.203Z,-4.15
2022-12-19T10:55:34.138Z,-4.07
2022-12-19T10:58:16.572Z,-4.00
2022-12-19T11:01:16.431Z,-3.90
2022-12-19T11:03:47.774Z,-3.89
2022-12-19T11:06:35.940Z,-3.85
2022-12-19T11:09:36.041Z,-3.85
2022-12-19T11:16:38.405Z,-3.91
2022-12-19T11:19:47.138Z,-3.83
2022-12-19T11:29:15.318Z,-3.80
2022-12-19T11:29:25.172Z,-3.71
2022-12-19T11:29:54.359Z,-3.69
2022-12-19T11:30:21.353Z,-3.66
2022-12-19T11:32:50.547Z,-3.61
2022-12-19T11:35:17.737Z,-3.54
2022-12-19T11:38:04.283Z,-3.50
2022-12-19T11:40:31.288Z,-3.48
2022-12-19T11:43:42.693Z,-3.43
2022-12-19T11:46:02.019Z,-3.42
2022-12-19T11:48:47.487Z,-3.39
2022-12-19T11:51:23.609Z,-3.45
2022-12-19T11:54:01.957Z,-3.47
2022-12-19T11:56:29.174Z,-3.41
2022-12-19T11:59:16.252Z,-3.39
2022-12-19T12:02:00.598Z,-3.39
2022-12-19T12:04:48.745Z,-3.40
2022-12-19T12:07:19.311Z,-3.37
2022-12-19T12:14:06.243Z,-3.38
2022-12-19T12:19:23.184Z,-3.37
2022-12-19T12:26:43.809Z,-3.39
2022-12-19T12:31:31.783Z,-3.41
2022-12-19T12:31:44.393Z,-3.46
2022-12-19T12:32:01.908Z,-3.48
2022-12-19T12:32:01.910Z,-3.57
2022-12-19T12:35:52.122Z,-3.54
2022-12-19T12:36:53.017Z,-3.58
2022-12-19T12:38:22.441Z,-3.58
2022-12-19T12:41:42.971Z,-3.52
2022-12-19T12:44:11.598Z,-3.54
2022-12-19T12:47:00.839Z,-3.60
2022-12-19T12:49:45.858Z,-3.59
2022-12-19T12:52:31.147Z,-3.61
2022-12-19T12:54:58.338Z,-3.69
2022-12-19T12:57:28.713Z,-3.58
2022-12-19T13:00:33.309Z,-3.54
2022-12-19T13:03:19.053Z,-3.55
2022-12-19T13:05:45.773Z,-3.53
2022-12-19T13:08:34.119Z,-3.50
2022-12-19T13:11:33.609Z,-3.49
2022-12-19T13:14:00.711Z,-3.53
2022-12-19T13:16:47.803Z,-3.54
2022-12-19T13:19:28.700Z,-3.53
2022-12-19T13:22:08.126Z,-3.52
2022-12-19T13:24:46.870Z,-3.49
2022-12-19T13:27:19.479Z,-3.49
2022-12-19T13:30:07.431Z,-3.49
2022-12-19T13:32:39.906Z,-3.49
2022-12-19T13:36:18.018Z,-3.45
2022-12-19T13:39:51.734Z,-3.45
2022-12-19T13:41:23.354Z,-3.46
2022-12-19T13:43:50.068Z,-3.46
2022-12-19T13:46:37.859Z,-3.42
2022-12-19T13:49:29.865Z,-3.42
2022-12-19T13:52:01.552Z,-3.38
2022-12-19T13:54:33.985Z,-3.33
2022-12-19T13:57:08.069Z,-3.26
2022-12-19T13:59:39.760Z,-3.21
2022-12-19T14:02:15.997Z,-3.17
2022-12-19T14:04:44.198Z,-3.13
2022-12-19T14:07:45.951Z,-3.08
2022-12-19T14:11:32.691Z,-3.08
2022-12-19T14:13:40.015Z,-3.09
2022-12-19T14:16:23.377Z,-3.10
2022-12-19T14:19:27.284Z,-3.09
2022-12-19T14:22:11.705Z,-3.09
2022-12-19T14:24:41.211Z,-3.08
2022-12-19T14:28:20.605Z,-3.07
2022-12-19T14:30:31.006Z,-3.07
2022-12-19T14:33:39.880Z,-3.16
2022-12-19T14:36:10.320Z,-3.14
2022-12-19T14:39:26.451Z,-3.15
2022-12-19T14:42:01.397Z,-3.09
2022-12-19T14:51:51.587Z,-3.10
2022-12-19T14:52:51.356Z,-3.13
2022-12-19T14:54:25.924Z,-3.08
2022-12-19T14:54:55.127Z,-3.12
2022-12-19T14:56:46.786Z,-3.13
2022-12-19T14:59:04.985Z,-3.12
2022-12-19T15:01:34.420Z,-3.05
2022-12-19T15:04:49.348Z,-2.99
2022-12-19T15:07:09.859Z,-3.00
2022-12-19T15:11:04.448Z,-2.99
2022-12-19T15:14:47.838Z,-3.03
2022-12-19T15:16:05.910Z,-3.02
2022-12-19T15:18:32.810Z,-2.95
2022-12-19T15:21:01.871Z,-2.87
2022-12-19T15:23:29.234Z,-2.82
2022-12-19T15:26:03.817Z,-2.75
2022-12-19T15:28:40.509Z,-2.72
2022-12-19T15:31:35.842Z,-2.71
2022-12-19T15:34:34.995Z,-2.74
2022-12-19T15:37:03.871Z,-2.79
2022-12-19T15:39:30.522Z,-2.78
2022-12-19T15:41:59.723Z,-2.72
2022-12-19T15:44:41.697Z,-2.69
2022-12-19T15:47:19.057Z,-2.67
2022-12-19T15:49:46.263Z,-2.68
2022-12-19T15:52:17.281Z,-2.65
2022-12-19T15:54:49.705Z,-2.66
2022-12-19T15:57:29.255Z,-2.63
2022-12-19T15:59:59.428Z,-2.61
2022-12-19T16:02:42.632Z,-2.55
2022-12-19T16:05:15.768Z,-2.58
2022-12-19T16:07:43.064Z,-2.56
2022-12-19T16:10:11.437Z,-2.49
2022-12-19T16:12:41.109Z,-2.42
2022-12-19T16:15:24.680Z,-2.40
2022-12-19T16:17:52.637Z,-2.37
2022-12-19T16:20:30.651Z,-2.35
2022-12-19T16:22:57.493Z,-2.32
2022-12-19T16:25:30.698Z,-2.27
2022-12-19T16:27:59.235Z,-2.21
2022-12-19T16:30:30.117Z,-2.17
2022-12-19T16:32:57.647Z,-2.15
2022-12-19T16:35:54.918Z,-2.14
2022-12-19T16:38:12.700Z,-2.14
2022-12-19T16:40:39.744Z,-2.12
2022-12-19T16:43:14.937Z,-2.10
2022-12-19T16:45:42.715Z,-2.07
2022-12-19T16:48:22.615Z,-2.05
2022-12-19T16:50:50.358Z,-2.02
2022-12-19T16:53:17.419Z,-1.99
2022-12-19T16:55:46.525Z,-1.97
2022-12-19T16:58:18.346Z,-1.95
2022-12-19T17:00:45.589Z,-1.92
2022-12-19T17:03:34.396Z,-1.89
2022-12-19T17:06:01.282Z,-1.87
2022-12-19T17:08:27.907Z,-1.86
2022-12-19T17:10:55.220Z,-1.84
2022-12-19T17:13:23.014Z,-1.84
2022-12-19T17:15:56.429Z,-1.81
2022-12-19T17:18:26.190Z,-1.78
2022-12-19T17:20:53.011Z,-1.77
2022-12-19T17:23:22.043Z,-1.77
2022-12-19T17:25:49.256Z,-1.74
2022-12-19T17:28:16.628Z,-1.74
2022-12-19T17:30:52.031Z,-1.69
2022-12-19T17:33:21.613Z,-1.68
2022-12-19T17:35:48.313Z,-1.66
2022-12-19T17:38:16.982Z,-1.65
2022-12-19T17:40:44.252Z,-1.63
2022-12-19T17:43:11.929Z,-1.62
2022-12-19T17:45:39.257Z,-1.60
2022-12-19T17:48:20.424Z,-1.59
2022-12-19T17:50:47.492Z,-1.60
2022-12-19T17:53:14.809Z,-1.58
2022-12-19T17:55:41.403Z,-1.58
2022-12-19T17:58:10.058Z,-1.56
2022-12-19T18:00:37.849Z,-1.60
2022-12-19T18:03:17.061Z,-1.56
2022-12-19T18:05:44.037Z,-1.55
2022-12-19T18:08:36.720Z,-1.57
2022-12-19T18:11:06.983Z,-1.58
2022-12-19T18:13:33.615Z,-1.55
2022-12-19T18:16:02.850Z,-1.51
2022-12-19T18:18:33.174Z,-1.49
2022-12-19T18:21:00.598Z,-1.48
2022-12-19T18:23:27.836Z,-1.45
2022-12-19T18:25:59.470Z,-1.42
2022-12-19T18:28:28.584Z,-1.41
2022-12-19T18:31:02.413Z,-1.38
2022-12-19T18:33:36.202Z,-1.32
2022-12-19T18:36:05.061Z,-1.28
2022-12-19T18:38:32.189Z,-1.23
2022-12-19T18:40:58.861Z,-1.20
2022-12-19T18:43:25.513Z,-1.21
2022-12-19T18:45:52.722Z,-1.25
2022-12-19T18:48:25.255Z,-1.29
2022-12-19T18:50:52.877Z,-1.31
2022-12-19T18:53:21.811Z,-1.33
2022-12-19T18:55:50.435Z,-1.31
2022-12-19T18:58:18.555Z,-1.31
2022-12-19T19:00:46.390Z,-1.30
2022-12-19T19:03:16.166Z,-1.29
2022-12-19T19:05:43.973Z,-1.30
2022-12-19T19:08:22.171Z,-1.28
2022-12-19T19:10:55.883Z,-1.29
2022-12-19T19:13:24.893Z,-1.25
2022-12-19T19:15:56.172Z,-1.23
2022-12-19T19:18:46.432Z,-1.22
2022-12-19T19:21:14.765Z,-1.26
2022-12-19T19:24:07.653Z,-1.23
2022-12-19T19:26:34.367Z,-1.23
2022-12-19T19:29:01.070Z,-1.21
2022-12-19T19:31:31.112Z,-1.18
2022-12-19T19:34:04.348Z,-1.19
2022-12-19T19:36:35.357Z,-1.16
2022-12-19T19:39:03.980Z,-1.18
2022-12-19T19:41:32.408Z,-1.18
2022-12-19T19:43:59.552Z,-1.17
2022-12-19T19:46:27.592Z,-1.15
2022-12-19T19:48:54.814Z,-1.14
2022-12-19T19:51:21.517Z,-1.08
2022-12-19T19:53:48.309Z,-1.04
2022-12-19T19:56:14.927Z,-1.03
2022-12-19T19:58:41.531Z,-1.01
2022-12-19T20:01:10.221Z,-1.03
2022-12-19T20:03:39.208Z,-1.05
2022-12-19T20:06:06.169Z,-1.04
2022-12-19T20:08:39.202Z,-1.01
2022-12-19T20:11:08.673Z,-0.99
2022-12-19T20:13:36.960Z,-0.99
2022-12-19T20:16:10.636Z,-0.96
2022-12-19T20:18:39.404Z,-0.95
2022-12-19T20:21:13.603Z,-0.94
2022-12-19T20:23:42.661Z,-0.94
2022-12-19T20:26:11.004Z,-0.93
2022-12-19T20:28:43.718Z,-0.93
2022-12-19T20:31:14.279Z,-0.92
2022-12-19T20:33:41.143Z,-0.97
2022-12-19T20:36:10.342Z,-0.97
2022-12-19T20:38:38.149Z,-0.93
2022-12-19T20:41:05.385Z,-0.92
2022-12-19T20:43:32.322Z,-0.91
2022-12-19T20:46:03.829Z,-0.88
2022-12-19T20:48:31.031Z,-0.86
2022-12-19T20:50:59.087Z,-0.83
2022-12-19T20:53:26.552Z,-0.83
2022-12-19T20:55:58.594Z,-0.81
2022-12-19T20:58:26.551Z,-0.82
2022-12-19T21:01:17.597Z,-0.80
2022-12-19T21:03:45.482Z,-0.82
2022-12-19T21:06:16.021Z,-0.80
2022-12-19T21:08:42.690Z,-0.78
2022-12-19T21:11:09.387Z,-0.79
2022-12-19T21:13:37.653Z,-0.77
2022-12-19T21:16:07.948Z,-0.73
2022-12-19T21:18:37.062Z,-0.71
2022-12-19T21:21:04.737Z,-0.69
2022-12-19T21:23:32.034Z,-0.65
2022-12-19T21:26:01.338Z,-0.61
2022-12-19T21:28:28.789Z,-0.58
2022-12-19T21:31:00.343Z,-0.55
2022-12-19T21:33:27.505Z,-0.53
2022-12-19T21:35:54.665Z,-0.51
2022-12-19T21:38:21.733Z,-0.49
2022-12-19T21:40:48.437Z,-0.48
2022-12-19T21:43:15.656Z,-0.47
2022-12-19T21:45:42.258Z,-0.45
2022-12-19T21:48:08.970Z,-0.42
2022-12-19T21:50:35.690Z,-0.41
2022-12-19T21:53:02.291Z,-0.39
2022-12-19T21:55:28.888Z,-0.38
2022-12-19T21:57:55.730Z,-0.34
2022-12-19T22:00:22.576Z,-0.30
2022-12-19T22:03:12.212Z,-0.26
2022-12-19T22:05:36.102Z,-0.26
2022-12-19T22:08:02.833Z,-0.21
2022-12-19T22:10:29.494Z,-0.15
2022-12-19T22:12:56.115Z,-0.10
2022-12-19T22:15:22.663Z,-0.07
2022-12-19T22:17:49.251Z,-0.07
2022-12-19T22:20:16.058Z,-0.04
2022-12-19T22:22:42.619Z,-0.01
2022-12-19T22:25:09.566Z,0.04
2022-12-19T22:27:36.234Z,0.09
2022-12-19T22:30:08.700Z,0.13
2022-12-19T22:32:37.567Z,0.13
2022-12-19T22:35:04.975Z,0.18
2022-12-19T22:37:31.695Z,0.20
2022-12-19T22:39:59.558Z,0.24
2022-12-19T22:42:27.270Z,0.27
2022-12-19T22:44:53.852Z,0.32
2022-12-19T22:47:20.417Z,0.36
2022-12-19T22:49:50.210Z,0.40
2022-12-19T22:52:16.931Z,0.44
2022-12-19T22:54:43.858Z,0.49
2022-12-19T22:57:10.435Z,0.54
2022-12-19T22:59:37.070Z,0.60
2022-12-19T23:02:03.887Z,0.64
2022-12-19T23:04:30.657Z,0.71
2022-12-19T23:06:57.301Z,0.75
2022-12-19T23:09:23.883Z,0.80
2022-12-19T23:11:50.589Z,0.83
2022-12-19T23:14:18.854Z,0.84
2022-12-19T23:16:46.312Z,0.86
2022-12-19T23:19:15.943Z,0.86
2022-12-19T23:21:42.542Z,0.88
2022-12-19T23:24:10.253Z,0.91
2022-12-19T23:26:37.370Z,0.94
2022-12-19T23:29:10.154Z,0.98
2022-12-19T23:31:40.536Z,1.00
2022-12-19T23:34:07.363Z,1.00
2022-12-19T23:39:20.656Z,1.03
2022-12-19T23:41:47.253Z,1.06
2022-12-19T23:44:14.738Z,1.09
2022-12-19T23:46:41.377Z,1.08
2022-12-19T23:49:08.030Z,1.11
2022-12-19T23:51:34.673Z,1.14
2022-12-19T23:54:01.286Z,1.17
2022-12-19T23:56:29.666Z,1.19
2022-12-19T23:58:57.119Z,1.21
